sensor_id;sensor_type;location;lat;lon;timestamp;temperature;humidity
54898;DHT22;40800;52.704;6.398;2023-07-16T00:00:27;16.80;99.90
54898;DHT22;40800;52.704;6.398;2023-07-16T00:02:52;17.00;99.90
54898;DHT22;40800;52.704;6.398;2023-07-16T00:05:18;16.90;99.90
54898;DHT22;40800;52.704;6.398;2023-07-16T00:07:43;16.90;99.90
54898;DHT22;40800;52.704;6.398;2023-07-16T00:10:09;17.00;99.90
54898;DHT22;40800;52.704;6.398;2023-07-16T00:12:35;16.80;99.90
54898;DHT22;40800;52.704;6.398;2023-07-16T00:15:01;16.80;99.90
54898;DHT22;40800;52.704;6.398;2023-07-16T00:17:26;16.80;99.90
54898;DHT22;40800;52.704;6.398;2023-07-16T00:19:52;16.80;99.90
54898;DHT22;40800;52.704;6.398;2023-07-16T00:22:17;16.70;99.90
54898;DHT22;40800;52.704;6.398;2023-07-16T00:24:43;16.70;99.90
54898;DHT22;40800;52.704;6.398;2023-07-16T00:27:08;16.60;99.90
54898;DHT22;40800;52.704;6.398;2023-07-16T00:29:34;16.60;99.90
54898;DHT22;40800;52.704;6.398;2023-07-16T00:32:00;16.60;99.90
54898;DHT22;40800;52.704;6.398;2023-07-16T00:34:25;16.60;99.90
54898;DHT22;40800;52.704;6.398;2023-07-16T00:36:51;16.50;99.90
54898;DHT22;40800;52.704;6.398;2023-07-16T00:39:16;16.50;99.90
54898;DHT22;40800;52.704;6.398;2023-07-16T00:41:42;16.50;99.90
54898;DHT22;40800;52.704;6.398;2023-07-16T00:44:07;16.40;99.90
54898;DHT22;40800;52.704;6.398;2023-07-16T00:46:33;16.40;99.90
54898;DHT22;40800;52.704;6.398;2023-07-16T00:48:59;16.40;99.90
54898;DHT22;40800;52.704;6.398;2023-07-16T00:51:25;16.30;99.90
54898;DHT22;40800;52.704;6.398;2023-07-16T00:53:51;16.40;99.90
54898;DHT22;40800;52.704;6.398;2023-07-16T00:56:17;16.30;99.90
54898;DHT22;40800;52.704;6.398;2023-07-16T00:58:43;16.30;99.90
54898;DHT22;40800;52.704;6.398;2023-07-16T01:01:09;16.30;99.90
54898;DHT22;40800;52.704;6.398;2023-07-16T01:03:34;16.30;99.90
54898;DHT22;40800;52.704;6.398;2023-07-16T01:08:42;16.40;99.90
54898;DHT22;40800;52.704;6.398;2023-07-16T01:11:10;16.40;99.90
54898;DHT22;40800;52.704;6.398;2023-07-16T01:13:36;16.40;99.90
54898;DHT22;40800;52.704;6.398;2023-07-16T01:16:02;16.50;99.90
54898;DHT22;40800;52.704;6.398;2023-07-16T01:18:28;16.50;99.90
54898;DHT22;40800;52.704;6.398;2023-07-16T01:20:53;16.50;99.90
54898;DHT22;40800;52.704;6.398;2023-07-16T01:23:26;16.50;99.90
54898;DHT22;40800;52.704;6.398;2023-07-16T01:28:53;16.50;99.90
54898;DHT22;40800;52.704;6.398;2023-07-16T01:31:22;16.50;99.90
54898;DHT22;40800;52.704;6.398;2023-07-16T01:33:50;16.50;99.90
54898;DHT22;40800;52.704;6.398;2023-07-16T01:36:18;16.60;99.90
54898;DHT22;40800;52.704;6.398;2023-07-16T01:38:45;16.60;99.90
54898;DHT22;40800;52.704;6.398;2023-07-16T01:41:11;16.70;99.90
54898;DHT22;40800;52.704;6.398;2023-07-16T01:43:36;16.70;99.90
54898;DHT22;40800;52.704;6.398;2023-07-16T01:46:02;16.80;99.90
54898;DHT22;40800;52.704;6.398;2023-07-16T01:48:33;16.90;99.90
54898;DHT22;40800;52.704;6.398;2023-07-16T01:51:00;17.00;99.90
54898;DHT22;40800;52.704;6.398;2023-07-16T01:53:26;16.90;99.90
54898;DHT22;40800;52.704;6.398;2023-07-16T01:55:51;17.10;99.90
54898;DHT22;40800;52.704;6.398;2023-07-16T01:58:17;17.00;99.90
54898;DHT22;40800;52.704;6.398;2023-07-16T02:00:42;17.10;99.90
54898;DHT22;40800;52.704;6.398;2023-07-16T02:03:08;17.00;99.90
54898;DHT22;40800;52.704;6.398;2023-07-16T02:05:34;17.00;99.90
54898;DHT22;40800;52.704;6.398;2023-07-16T02:08:00;17.00;99.90
54898;DHT22;40800;52.704;6.398;2023-07-16T02:10:25;16.90;99.90
54898;DHT22;40800;52.704;6.398;2023-07-16T02:12:52;16.90;99.90
54898;DHT22;40800;52.704;6.398;2023-07-16T02:15:19;16.90;99.90
54898;DHT22;40800;52.704;6.398;2023-07-16T02:17:45;16.90;99.90
54898;DHT22;40800;52.704;6.398;2023-07-16T02:20:10;17.00;99.90
54898;DHT22;40800;52.704;6.398;2023-07-16T02:22:36;16.90;99.90
54898;DHT22;40800;52.704;6.398;2023-07-16T02:25:03;16.90;99.90
54898;DHT22;40800;52.704;6.398;2023-07-16T02:27:29;16.80;99.90
54898;DHT22;40800;52.704;6.398;2023-07-16T02:29:55;16.70;99.90
54898;DHT22;40800;52.704;6.398;2023-07-16T02:32:21;16.60;99.90
54898;DHT22;40800;52.704;6.398;2023-07-16T02:34:46;16.50;99.90
54898;DHT22;40800;52.704;6.398;2023-07-16T02:37:12;16.50;99.90
54898;DHT22;40800;52.704;6.398;2023-07-16T02:39:39;16.50;99.90
54898;DHT22;40800;52.704;6.398;2023-07-16T02:42:05;16.50;99.90
54898;DHT22;40800;52.704;6.398;2023-07-16T02:44:30;16.60;99.90
54898;DHT22;40800;52.704;6.398;2023-07-16T02:46:56;16.60;99.90
54898;DHT22;40800;52.704;6.398;2023-07-16T02:49:21;16.50;99.90
54898;DHT22;40800;52.704;6.398;2023-07-16T02:51:47;16.50;99.90
54898;DHT22;40800;52.704;6.398;2023-07-16T02:54:13;16.50;99.90
54898;DHT22;40800;52.704;6.398;2023-07-16T02:56:38;16.50;99.90
54898;DHT22;40800;52.704;6.398;2023-07-16T02:59:04;16.50;99.90
54898;DHT22;40800;52.704;6.398;2023-07-16T03:01:29;16.40;99.90
54898;DHT22;40800;52.704;6.398;2023-07-16T03:03:55;16.40;99.90
54898;DHT22;40800;52.704;6.398;2023-07-16T03:06:21;16.40;99.90
54898;DHT22;40800;52.704;6.398;2023-07-16T03:08:46;16.50;99.90
54898;DHT22;40800;52.704;6.398;2023-07-16T03:11:12;16.40;99.90
54898;DHT22;40800;52.704;6.398;2023-07-16T03:13:37;16.40;99.90
54898;DHT22;40800;52.704;6.398;2023-07-16T03:16:03;16.40;99.90
54898;DHT22;40800;52.704;6.398;2023-07-16T03:18:29;16.30;99.90
54898;DHT22;40800;52.704;6.398;2023-07-16T03:20:56;16.40;99.90
54898;DHT22;40800;52.704;6.398;2023-07-16T03:23:22;16.40;99.90
54898;DHT22;40800;52.704;6.398;2023-07-16T03:25:47;16.40;99.90
54898;DHT22;40800;52.704;6.398;2023-07-16T03:28:13;16.30;99.90
54898;DHT22;40800;52.704;6.398;2023-07-16T03:30:39;16.40;99.90
54898;DHT22;40800;52.704;6.398;2023-07-16T03:33:05;16.30;99.90
54898;DHT22;40800;52.704;6.398;2023-07-16T03:35:30;16.30;99.90
54898;DHT22;40800;52.704;6.398;2023-07-16T03:37:56;16.40;99.90
54898;DHT22;40800;52.704;6.398;2023-07-16T03:40:25;16.40;99.90
54898;DHT22;40800;52.704;6.398;2023-07-16T03:42:51;16.40;99.90
54898;DHT22;40800;52.704;6.398;2023-07-16T03:45:16;16.30;99.90
54898;DHT22;40800;52.704;6.398;2023-07-16T03:47:42;16.30;99.90
54898;DHT22;40800;52.704;6.398;2023-07-16T03:50:08;16.30;99.90
54898;DHT22;40800;52.704;6.398;2023-07-16T03:52:34;16.30;99.90
54898;DHT22;40800;52.704;6.398;2023-07-16T03:54:59;16.30;99.90
54898;DHT22;40800;52.704;6.398;2023-07-16T03:57:29;16.30;99.90
54898;DHT22;40800;52.704;6.398;2023-07-16T03:59:54;16.20;99.90
54898;DHT22;40800;52.704;6.398;2023-07-16T04:02:20;16.30;99.90
54898;DHT22;40800;52.704;6.398;2023-07-16T04:04:46;16.20;99.90
54898;DHT22;40800;52.704;6.398;2023-07-16T04:07:12;16.30;99.90
54898;DHT22;40800;52.704;6.398;2023-07-16T04:09:38;16.20;99.90
54898;DHT22;40800;52.704;6.398;2023-07-16T04:12:05;16.20;99.90
54898;DHT22;40800;52.704;6.398;2023-07-16T04:14:31;16.20;99.90
54898;DHT22;40800;52.704;6.398;2023-07-16T04:16:57;16.20;99.90
54898;DHT22;40800;52.704;6.398;2023-07-16T04:19:22;16.20;99.90
54898;DHT22;40800;52.704;6.398;2023-07-16T04:21:48;16.10;99.90
54898;DHT22;40800;52.704;6.398;2023-07-16T04:24:13;16.10;99.90
54898;DHT22;40800;52.704;6.398;2023-07-16T04:26:39;16.10;99.90
54898;DHT22;40800;52.704;6.398;2023-07-16T04:29:04;16.10;99.90
54898;DHT22;40800;52.704;6.398;2023-07-16T04:31:30;16.10;99.90
54898;DHT22;40800;52.704;6.398;2023-07-16T04:33:56;16.10;99.90
54898;DHT22;40800;52.704;6.398;2023-07-16T04:36:21;16.10;99.90
54898;DHT22;40800;52.704;6.398;2023-07-16T04:38:47;16.20;99.90
54898;DHT22;40800;52.704;6.398;2023-07-16T04:41:12;16.20;99.90
54898;DHT22;40800;52.704;6.398;2023-07-16T04:43:39;16.30;99.90
54898;DHT22;40800;52.704;6.398;2023-07-16T04:46:04;16.30;99.90
54898;DHT22;40800;52.704;6.398;2023-07-16T04:48:30;16.40;99.90
54898;DHT22;40800;52.704;6.398;2023-07-16T04:50:56;16.40;99.90
54898;DHT22;40800;52.704;6.398;2023-07-16T04:53:24;16.40;99.90
54898;DHT22;40800;52.704;6.398;2023-07-16T04:55:50;16.40;99.90
54898;DHT22;40800;52.704;6.398;2023-07-16T04:58:16;16.40;99.90
54898;DHT22;40800;52.704;6.398;2023-07-16T05:00:42;16.50;99.90
54898;DHT22;40800;52.704;6.398;2023-07-16T05:03:07;16.50;99.90
54898;DHT22;40800;52.704;6.398;2023-07-16T05:05:33;16.50;99.90
54898;DHT22;40800;52.704;6.398;2023-07-16T05:07:58;16.80;99.90
54898;DHT22;40800;52.704;6.398;2023-07-16T05:10:24;16.50;99.90
54898;DHT22;40800;52.704;6.398;2023-07-16T05:12:50;16.60;99.90
54898;DHT22;40800;52.704;6.398;2023-07-16T05:15:15;16.60;99.90
54898;DHT22;40800;52.704;6.398;2023-07-16T05:17:41;16.70;99.90
54898;DHT22;40800;52.704;6.398;2023-07-16T05:20:07;16.70;99.90
54898;DHT22;40800;52.704;6.398;2023-07-16T05:22:34;16.70;99.90
54898;DHT22;40800;52.704;6.398;2023-07-16T05:25:00;16.90;99.90
54898;DHT22;40800;52.704;6.398;2023-07-16T05:27:26;16.80;99.90
54898;DHT22;40800;52.704;6.398;2023-07-16T05:29:52;16.80;99.90
54898;DHT22;40800;52.704;6.398;2023-07-16T05:32:17;16.90;99.90
54898;DHT22;40800;52.704;6.398;2023-07-16T05:34:43;17.10;99.90
54898;DHT22;40800;52.704;6.398;2023-07-16T05:37:09;16.90;99.90
54898;DHT22;40800;52.704;6.398;2023-07-16T05:39:34;16.90;99.90
54898;DHT22;40800;52.704;6.398;2023-07-16T05:42:00;17.00;99.90
54898;DHT22;40800;52.704;6.398;2023-07-16T05:44:28;17.00;99.90
54898;DHT22;40800;52.704;6.398;2023-07-16T05:46:53;17.00;99.90
54898;DHT22;40800;52.704;6.398;2023-07-16T05:49:19;17.10;99.90
54898;DHT22;40800;52.704;6.398;2023-07-16T05:51:45;17.10;99.90
54898;DHT22;40800;52.704;6.398;2023-07-16T05:54:10;17.20;99.90
54898;DHT22;40800;52.704;6.398;2023-07-16T05:56:36;17.20;99.90
54898;DHT22;40800;52.704;6.398;2023-07-16T05:59:01;17.30;99.90
54898;DHT22;40800;52.704;6.398;2023-07-16T06:01:27;17.60;99.90
54898;DHT22;40800;52.704;6.398;2023-07-16T06:03:53;17.70;99.90
54898;DHT22;40800;52.704;6.398;2023-07-16T06:06:19;17.50;99.90
54898;DHT22;40800;52.704;6.398;2023-07-16T06:08:45;17.50;99.90
54898;DHT22;40800;52.704;6.398;2023-07-16T06:11:12;17.50;99.90
54898;DHT22;40800;52.704;6.398;2023-07-16T06:13:37;17.80;99.90
54898;DHT22;40800;52.704;6.398;2023-07-16T06:16:03;17.80;99.90
54898;DHT22;40800;52.704;6.398;2023-07-16T06:18:29;17.50;99.90
54898;DHT22;40800;52.704;6.398;2023-07-16T06:20:54;17.70;99.90
54898;DHT22;40800;52.704;6.398;2023-07-16T06:23:20;17.70;99.90
54898;DHT22;40800;52.704;6.398;2023-07-16T06:25:46;17.70;99.90
54898;DHT22;40800;52.704;6.398;2023-07-16T06:28:14;17.70;99.90
54898;DHT22;40800;52.704;6.398;2023-07-16T06:30:39;17.90;99.90
54898;DHT22;40800;52.704;6.398;2023-07-16T06:33:05;17.80;99.90
54898;DHT22;40800;52.704;6.398;2023-07-16T06:35:31;17.80;99.90
54898;DHT22;40800;52.704;6.398;2023-07-16T06:37:56;18.00;99.90
54898;DHT22;40800;52.704;6.398;2023-07-16T06:40:24;17.90;99.90
54898;DHT22;40800;52.704;6.398;2023-07-16T06:42:50;18.00;99.90
54898;DHT22;40800;52.704;6.398;2023-07-16T06:45:17;18.00;99.90
54898;DHT22;40800;52.704;6.398;2023-07-16T06:47:43;18.10;99.90
54898;DHT22;40800;52.704;6.398;2023-07-16T06:50:09;18.20;99.90
54898;DHT22;40800;52.704;6.398;2023-07-16T06:52:35;18.20;99.90
54898;DHT22;40800;52.704;6.398;2023-07-16T06:55:00;18.40;99.90
54898;DHT22;40800;52.704;6.398;2023-07-16T06:57:26;18.30;99.90
54898;DHT22;40800;52.704;6.398;2023-07-16T06:59:52;18.30;99.90
54898;DHT22;40800;52.704;6.398;2023-07-16T07:02:18;18.30;99.90
54898;DHT22;40800;52.704;6.398;2023-07-16T07:04:44;18.40;99.90
54898;DHT22;40800;52.704;6.398;2023-07-16T07:07:09;18.50;99.90
54898;DHT22;40800;52.704;6.398;2023-07-16T07:09:35;18.50;99.90
54898;DHT22;40800;52.704;6.398;2023-07-16T07:12:01;18.60;99.90
54898;DHT22;40800;52.704;6.398;2023-07-16T07:14:27;18.60;99.90
54898;DHT22;40800;52.704;6.398;2023-07-16T07:16:52;18.70;99.90
54898;DHT22;40800;52.704;6.398;2023-07-16T07:19:18;18.70;99.90
54898;DHT22;40800;52.704;6.398;2023-07-16T07:21:44;18.80;99.90
54898;DHT22;40800;52.704;6.398;2023-07-16T07:24:09;18.80;99.90
54898;DHT22;40800;52.704;6.398;2023-07-16T07:26:35;18.80;99.90
54898;DHT22;40800;52.704;6.398;2023-07-16T07:29:01;18.90;99.90
54898;DHT22;40800;52.704;6.398;2023-07-16T07:31:26;19.00;99.90
54898;DHT22;40800;52.704;6.398;2023-07-16T07:33:52;19.00;99.90
54898;DHT22;40800;52.704;6.398;2023-07-16T07:36:19;19.10;99.90
54898;DHT22;40800;52.704;6.398;2023-07-16T07:38:45;19.00;99.90
54898;DHT22;40800;52.704;6.398;2023-07-16T07:41:10;19.10;99.90
54898;DHT22;40800;52.704;6.398;2023-07-16T07:43:36;19.10;99.90
54898;DHT22;40800;52.704;6.398;2023-07-16T07:46:02;19.10;99.90
54898;DHT22;40800;52.704;6.398;2023-07-16T07:48:27;19.20;99.90
54898;DHT22;40800;52.704;6.398;2023-07-16T07:50:53;19.40;99.90
54898;DHT22;40800;52.704;6.398;2023-07-16T07:53:19;19.50;99.90
54898;DHT22;40800;52.704;6.398;2023-07-16T07:55:45;19.50;99.90
54898;DHT22;40800;52.704;6.398;2023-07-16T07:58:11;19.60;99.90
54898;DHT22;40800;52.704;6.398;2023-07-16T08:00:36;19.50;99.90
54898;DHT22;40800;52.704;6.398;2023-07-16T08:03:02;19.50;99.90
54898;DHT22;40800;52.704;6.398;2023-07-16T08:05:28;19.70;99.90
54898;DHT22;40800;52.704;6.398;2023-07-16T08:07:53;19.80;99.90
54898;DHT22;40800;52.704;6.398;2023-07-16T08:10:21;19.80;99.90
54898;DHT22;40800;52.704;6.398;2023-07-16T08:12:47;19.80;99.90
54898;DHT22;40800;52.704;6.398;2023-07-16T08:15:13;19.60;99.90
54898;DHT22;40800;52.704;6.398;2023-07-16T08:17:44;19.60;99.90
54898;DHT22;40800;52.704;6.398;2023-07-16T08:20:10;19.60;99.90
54898;DHT22;40800;52.704;6.398;2023-07-16T08:22:36;19.60;99.90
54898;DHT22;40800;52.704;6.398;2023-07-16T08:25:03;19.70;99.90
54898;DHT22;40800;52.704;6.398;2023-07-16T08:27:29;19.60;99.90
54898;DHT22;40800;52.704;6.398;2023-07-16T08:29:55;19.60;99.90
54898;DHT22;40800;52.704;6.398;2023-07-16T08:32:21;19.50;99.90
54898;DHT22;40800;52.704;6.398;2023-07-16T08:34:47;19.40;99.90
54898;DHT22;40800;52.704;6.398;2023-07-16T08:37:13;19.40;99.90
54898;DHT22;40800;52.704;6.398;2023-07-16T08:39:39;19.40;99.90
54898;DHT22;40800;52.704;6.398;2023-07-16T08:42:05;19.40;99.90
54898;DHT22;40800;52.704;6.398;2023-07-16T08:44:31;19.40;99.90
54898;DHT22;40800;52.704;6.398;2023-07-16T08:46:57;19.40;99.90
54898;DHT22;40800;52.704;6.398;2023-07-16T08:49:23;19.40;99.90
54898;DHT22;40800;52.704;6.398;2023-07-16T08:51:49;19.40;99.90
54898;DHT22;40800;52.704;6.398;2023-07-16T08:54:16;19.40;99.90
54898;DHT22;40800;52.704;6.398;2023-07-16T08:56:43;19.40;99.90
54898;DHT22;40800;52.704;6.398;2023-07-16T08:59:09;19.40;99.90
54898;DHT22;40800;52.704;6.398;2023-07-16T09:01:37;19.50;99.90
54898;DHT22;40800;52.704;6.398;2023-07-16T09:04:02;19.60;99.90
54898;DHT22;40800;52.704;6.398;2023-07-16T09:06:28;19.60;99.90
54898;DHT22;40800;52.704;6.398;2023-07-16T09:08:54;19.80;99.90
54898;DHT22;40800;52.704;6.398;2023-07-16T09:11:21;19.90;99.90
54898;DHT22;40800;52.704;6.398;2023-07-16T09:13:48;20.00;99.90
54898;DHT22;40800;52.704;6.398;2023-07-16T09:16:14;19.80;99.90
54898;DHT22;40800;52.704;6.398;2023-07-16T09:18:42;19.80;99.90
54898;DHT22;40800;52.704;6.398;2023-07-16T09:21:08;19.70;99.90
54898;DHT22;40800;52.704;6.398;2023-07-16T09:23:34;19.50;99.90
54898;DHT22;40800;52.704;6.398;2023-07-16T09:25:59;19.60;99.90
54898;DHT22;40800;52.704;6.398;2023-07-16T09:28:25;19.50;99.90
54898;DHT22;40800;52.704;6.398;2023-07-16T09:30:52;19.50;99.90
54898;DHT22;40800;52.704;6.398;2023-07-16T09:33:19;19.50;99.90
54898;DHT22;40800;52.704;6.398;2023-07-16T09:35:48;19.50;99.90
54898;DHT22;40800;52.704;6.398;2023-07-16T09:38:14;19.50;99.90
54898;DHT22;40800;52.704;6.398;2023-07-16T09:40:40;19.40;99.90
54898;DHT22;40800;52.704;6.398;2023-07-16T09:43:08;19.70;99.90
54898;DHT22;40800;52.704;6.398;2023-07-16T09:45:35;20.10;99.90
54898;DHT22;40800;52.704;6.398;2023-07-16T09:48:02;20.20;99.90
54898;DHT22;40800;52.704;6.398;2023-07-16T09:50:29;20.20;99.90
54898;DHT22;40800;52.704;6.398;2023-07-16T09:52:57;20.20;99.90
54898;DHT22;40800;52.704;6.398;2023-07-16T09:55:24;20.10;99.90
54898;DHT22;40800;52.704;6.398;2023-07-16T09:57:53;20.00;99.90
54898;DHT22;40800;52.704;6.398;2023-07-16T10:00:21;20.00;99.90
54898;DHT22;40800;52.704;6.398;2023-07-16T10:02:47;20.10;99.90
54898;DHT22;40800;52.704;6.398;2023-07-16T10:05:17;20.00;99.90
54898;DHT22;40800;52.704;6.398;2023-07-16T10:07:50;20.00;99.90
54898;DHT22;40800;52.704;6.398;2023-07-16T10:10:16;19.90;99.90
54898;DHT22;40800;52.704;6.398;2023-07-16T10:12:43;19.80;99.90
54898;DHT22;40800;52.704;6.398;2023-07-16T10:15:25;19.60;99.90
54898;DHT22;40800;52.704;6.398;2023-07-16T10:17:51;19.50;99.90
54898;DHT22;40800;52.704;6.398;2023-07-16T10:20:17;19.40;99.90
54898;DHT22;40800;52.704;6.398;2023-07-16T10:22:52;19.30;99.90
54898;DHT22;40800;52.704;6.398;2023-07-16T10:27:45;19.20;99.90
54898;DHT22;40800;52.704;6.398;2023-07-16T10:30:11;19.20;99.90
54898;DHT22;40800;52.704;6.398;2023-07-16T10:32:37;19.20;99.90
54898;DHT22;40800;52.704;6.398;2023-07-16T10:35:04;19.40;99.90
54898;DHT22;40800;52.704;6.398;2023-07-16T10:37:30;19.60;99.90
54898;DHT22;40800;52.704;6.398;2023-07-16T10:40:00;19.60;99.90
54898;DHT22;40800;52.704;6.398;2023-07-16T10:42:27;19.70;99.90
54898;DHT22;40800;52.704;6.398;2023-07-16T10:44:57;19.70;99.90
54898;DHT22;40800;52.704;6.398;2023-07-16T10:47:24;19.70;99.90
54898;DHT22;40800;52.704;6.398;2023-07-16T10:49:51;20.00;99.90
54898;DHT22;40800;52.704;6.398;2023-07-16T10:52:20;20.20;99.90
54898;DHT22;40800;52.704;6.398;2023-07-16T10:54:46;20.40;99.90
54898;DHT22;40800;52.704;6.398;2023-07-16T10:57:11;20.30;99.90
54898;DHT22;40800;52.704;6.398;2023-07-16T10:59:40;20.20;99.90
54898;DHT22;40800;52.704;6.398;2023-07-16T11:02:11;20.20;99.90
54898;DHT22;40800;52.704;6.398;2023-07-16T11:04:37;20.10;99.90
54898;DHT22;40800;52.704;6.398;2023-07-16T11:07:10;20.20;99.90
54898;DHT22;40800;52.704;6.398;2023-07-16T11:09:46;20.50;99.90
54898;DHT22;40800;52.704;6.398;2023-07-16T11:12:17;20.70;99.90
54898;DHT22;40800;52.704;6.398;2023-07-16T11:14:51;21.00;99.90
54898;DHT22;40800;52.704;6.398;2023-07-16T11:17:17;21.20;99.90
54898;DHT22;40800;52.704;6.398;2023-07-16T11:19:47;21.10;99.90
54898;DHT22;40800;52.704;6.398;2023-07-16T11:22:14;21.00;99.90
54898;DHT22;40800;52.704;6.398;2023-07-16T11:24:45;20.90;88.50
54898;DHT22;40800;52.704;6.398;2023-07-16T11:27:26;20.60;99.90
54898;DHT22;40800;52.704;6.398;2023-07-16T11:29:57;20.30;99.90
54898;DHT22;40800;52.704;6.398;2023-07-16T11:32:38;20.10;99.90
54898;DHT22;40800;52.704;6.398;2023-07-16T11:35:08;20.10;99.90
54898;DHT22;40800;52.704;6.398;2023-07-16T11:37:34;20.00;99.90
54898;DHT22;40800;52.704;6.398;2023-07-16T11:40:05;20.10;99.90
54898;DHT22;40800;52.704;6.398;2023-07-16T11:42:32;20.10;99.90
54898;DHT22;40800;52.704;6.398;2023-07-16T11:44:58;20.10;99.90
54898;DHT22;40800;52.704;6.398;2023-07-16T11:47:25;20.40;99.90
54898;DHT22;40800;52.704;6.398;2023-07-16T11:49:51;20.40;99.90
54898;DHT22;40800;52.704;6.398;2023-07-16T11:52:35;20.40;99.90
54898;DHT22;40800;52.704;6.398;2023-07-16T11:55:00;20.30;99.90
54898;DHT22;40800;52.704;6.398;2023-07-16T11:57:26;20.60;99.90
54898;DHT22;40800;52.704;6.398;2023-07-16T11:59:52;20.70;99.90
54898;DHT22;40800;52.704;6.398;2023-07-16T12:02:18;20.90;99.90
54898;DHT22;40800;52.704;6.398;2023-07-16T12:04:44;20.80;99.90
54898;DHT22;40800;52.704;6.398;2023-07-16T12:07:09;20.70;99.90
54898;DHT22;40800;52.704;6.398;2023-07-16T12:09:35;20.70;99.90
54898;DHT22;40800;52.704;6.398;2023-07-16T12:12:01;20.50;99.90
54898;DHT22;40800;52.704;6.398;2023-07-16T12:14:27;20.30;99.90
54898;DHT22;40800;52.704;6.398;2023-07-16T12:16:52;20.20;99.90
54898;DHT22;40800;52.704;6.398;2023-07-16T12:19:18;20.20;99.90
54898;DHT22;40800;52.704;6.398;2023-07-16T12:21:44;20.30;99.90
54898;DHT22;40800;52.704;6.398;2023-07-16T12:24:10;20.60;99.90
54898;DHT22;40800;52.704;6.398;2023-07-16T12:26:36;21.00;99.90
54898;DHT22;40800;52.704;6.398;2023-07-16T12:29:02;21.60;99.90
54898;DHT22;40800;52.704;6.398;2023-07-16T12:31:33;21.80;99.90
54898;DHT22;40800;52.704;6.398;2023-07-16T12:34:01;21.80;58.30
54898;DHT22;40800;52.704;6.398;2023-07-16T12:36:30;21.80;98.70
54898;DHT22;40800;52.704;6.398;2023-07-16T12:38:56;21.80;99.90
54898;DHT22;40800;52.704;6.398;2023-07-16T12:41:22;21.90;99.90
54898;DHT22;40800;52.704;6.398;2023-07-16T12:43:47;21.90;90.10
54898;DHT22;40800;52.704;6.398;2023-07-16T12:46:13;22.00;61.10
54898;DHT22;40800;52.704;6.398;2023-07-16T12:48:39;22.30;99.90
54898;DHT22;40800;52.704;6.398;2023-07-16T12:51:04;22.70;59.20
54898;DHT22;40800;52.704;6.398;2023-07-16T12:53:30;22.90;1.00
54898;DHT22;40800;52.704;6.398;2023-07-16T12:55:55;22.90;6.50
54898;DHT22;40800;52.704;6.398;2023-07-16T12:58:21;22.50;1.00
54898;DHT22;40800;52.704;6.398;2023-07-16T13:00:47;22.20;1.00
54898;DHT22;40800;52.704;6.398;2023-07-16T13:03:12;21.90;1.00
54898;DHT22;40800;52.704;6.398;2023-07-16T13:05:42;21.70;1.00
54898;DHT22;40800;52.704;6.398;2023-07-16T13:08:08;21.60;61.40
54898;DHT22;40800;52.704;6.398;2023-07-16T13:10:34;21.80;60.10
54898;DHT22;40800;52.704;6.398;2023-07-16T13:12:59;21.90;47.60
54898;DHT22;40800;52.704;6.398;2023-07-16T13:15:25;22.40;1.00
54898;DHT22;40800;52.704;6.398;2023-07-16T13:17:50;22.90;93.20
54898;DHT22;40800;52.704;6.398;2023-07-16T13:20:17;22.90;1.00
54898;DHT22;40800;52.704;6.398;2023-07-16T13:22:43;22.70;1.00
54898;DHT22;40800;52.704;6.398;2023-07-16T13:25:09;22.70;12.00
54898;DHT22;40800;52.704;6.398;2023-07-16T13:27:35;22.90;1.00
54898;DHT22;40800;52.704;6.398;2023-07-16T13:30:01;23.00;1.00
54898;DHT22;40800;52.704;6.398;2023-07-16T13:32:26;23.20;1.00
54898;DHT22;40800;52.704;6.398;2023-07-16T13:34:53;23.40;1.00
54898;DHT22;40800;52.704;6.398;2023-07-16T13:37:19;23.60;1.00
54898;DHT22;40800;52.704;6.398;2023-07-16T13:39:44;23.70;1.00
54898;DHT22;40800;52.704;6.398;2023-07-16T13:42:10;23.70;1.00
54898;DHT22;40800;52.704;6.398;2023-07-16T13:44:36;23.60;99.90
54898;DHT22;40800;52.704;6.398;2023-07-16T13:47:02;23.30;99.90
54898;DHT22;40800;52.704;6.398;2023-07-16T13:49:28;23.10;99.90
54898;DHT22;40800;52.704;6.398;2023-07-16T13:51:53;23.10;99.90
54898;DHT22;40800;52.704;6.398;2023-07-16T13:54:19;22.90;1.00
54898;DHT22;40800;52.704;6.398;2023-07-16T13:56:45;22.50;99.90
54898;DHT22;40800;52.704;6.398;2023-07-16T13:59:10;22.10;99.90
54898;DHT22;40800;52.704;6.398;2023-07-16T14:01:38;21.90;1.00
54898;DHT22;40800;52.704;6.398;2023-07-16T14:04:04;21.80;99.90
54898;DHT22;40800;52.704;6.398;2023-07-16T14:06:30;21.70;99.90
54898;DHT22;40800;52.704;6.398;2023-07-16T14:08:56;21.50;99.90
54898;DHT22;40800;52.704;6.398;2023-07-16T14:11:22;21.60;1.00
54898;DHT22;40800;52.704;6.398;2023-07-16T14:13:48;21.70;1.00
54898;DHT22;40800;52.704;6.398;2023-07-16T14:16:17;21.80;1.00
54898;DHT22;40800;52.704;6.398;2023-07-16T14:18:42;22.30;1.00
54898;DHT22;40800;52.704;6.398;2023-07-16T14:21:08;22.70;99.90
54898;DHT22;40800;52.704;6.398;2023-07-16T14:23:33;23.20;99.90
54898;DHT22;40800;52.704;6.398;2023-07-16T14:25:59;23.20;99.90
54898;DHT22;40800;52.704;6.398;2023-07-16T14:28:25;22.90;99.90
54898;DHT22;40800;52.704;6.398;2023-07-16T14:30:50;22.60;99.90
54898;DHT22;40800;52.704;6.398;2023-07-16T14:33:16;22.30;99.90
54898;DHT22;40800;52.704;6.398;2023-07-16T14:35:42;22.10;99.90
54898;DHT22;40800;52.704;6.398;2023-07-16T14:38:07;21.90;99.90
54898;DHT22;40800;52.704;6.398;2023-07-16T14:40:33;21.70;99.90
54898;DHT22;40800;52.704;6.398;2023-07-16T14:42:58;21.80;99.90
54898;DHT22;40800;52.704;6.398;2023-07-16T14:45:24;21.70;99.90
54898;DHT22;40800;52.704;6.398;2023-07-16T14:47:50;21.80;99.90
54898;DHT22;40800;52.704;6.398;2023-07-16T14:50:15;21.90;99.90
54898;DHT22;40800;52.704;6.398;2023-07-16T14:52:41;21.90;99.90
54898;DHT22;40800;52.704;6.398;2023-07-16T14:55:07;22.00;99.90
54898;DHT22;40800;52.704;6.398;2023-07-16T14:57:33;22.00;99.90
54898;DHT22;40800;52.704;6.398;2023-07-16T14:59:59;21.90;99.90
54898;DHT22;40800;52.704;6.398;2023-07-16T15:02:25;21.80;99.90
54898;DHT22;40800;52.704;6.398;2023-07-16T15:04:51;21.60;99.90
54898;DHT22;40800;52.704;6.398;2023-07-16T15:07:16;21.60;99.90
54898;DHT22;40800;52.704;6.398;2023-07-16T15:09:42;21.50;99.90
54898;DHT22;40800;52.704;6.398;2023-07-16T15:12:08;21.40;99.90
54898;DHT22;40800;52.704;6.398;2023-07-16T15:14:34;21.30;99.90
54898;DHT22;40800;52.704;6.398;2023-07-16T15:17:00;21.30;1.00
54898;DHT22;40800;52.704;6.398;2023-07-16T15:19:25;21.40;1.00
54898;DHT22;40800;52.704;6.398;2023-07-16T15:21:51;21.30;1.00
54898;DHT22;40800;52.704;6.398;2023-07-16T15:24:16;21.30;1.00
54898;DHT22;40800;52.704;6.398;2023-07-16T15:26:42;21.20;1.00
54898;DHT22;40800;52.704;6.398;2023-07-16T15:29:08;21.10;1.00
54898;DHT22;40800;52.704;6.398;2023-07-16T15:31:33;21.20;1.00
54898;DHT22;40800;52.704;6.398;2023-07-16T15:33:59;21.20;1.00